Terminal Aerodrome Forecast
Issued by NWS

Home | Current Version | Previous Version | Text Only | Print | Product List | Glossary On
Versions: 1 2 3 4 5 6 7 8 9 10 11 12 13 14 15 16 17
000
FTUS41 KBTV 280538
TAFRUT
TAF
KRUT 280538Z 2806/2906 00000KT 4SM -SN BR BKN035 OVC040
     FM280800 00000KT P6SM OVC035
     FM281400 30007KT P6SM OVC040
     FM282000 29007KT P6SM SCT040
     FM290200 VRB03KT P6SM FEW080
      AMD LTD TO CLD VIS AND WIND=

USA.gov is the U.S. government's official web portal to all federal, state and local government web resources and services.